sensor_id;sensor_type;location;lat;lon;timestamp;pressure;altitude;pressure_sealevel;temperature;humidity
53874;BME280;62246;50.938;4.058;2022-09-14T00:00:48;100858.56;;;16.54;94.93
53874;BME280;62246;50.938;4.058;2022-09-14T00:03:14;100862.09;;;16.54;94.89
53874;BME280;62246;50.938;4.058;2022-09-14T00:05:40;100857.19;;;16.49;94.75
53874;BME280;62246;50.938;4.058;2022-09-14T00:08:06;100852.72;;;16.50;95.59
53874;BME280;62246;50.938;4.058;2022-09-14T00:10:32;100845.34;;;16.52;94.38
53874;BME280;62246;50.938;4.058;2022-09-14T00:12:57;100842.41;;;16.55;94.29
53874;BME280;62246;50.938;4.058;2022-09-14T00:15:25;100842.78;;;16.60;94.19
53874;BME280;62246;50.938;4.058;2022-09-14T00:17:51;100834.06;;;16.58;94.41
53874;BME280;62246;50.938;4.058;2022-09-14T00:20:16;100819.19;;;16.56;94.37
53874;BME280;62246;50.938;4.058;2022-09-14T00:22:42;100815.50;;;16.57;94.43
53874;BME280;62246;50.938;4.058;2022-09-14T00:25:08;100824.06;;;16.42;94.83
53874;BME280;62246;50.938;4.058;2022-09-14T00:27:33;100831.34;;;16.50;94.28
53874;BME280;62246;50.938;4.058;2022-09-14T00:29:59;100813.06;;;16.45;94.16
53874;BME280;62246;50.938;4.058;2022-09-14T00:32:24;100810.56;;;16.44;94.58
53874;BME280;62246;50.938;4.058;2022-09-14T00:34:50;100813.56;;;16.41;94.15
53874;BME280;62246;50.938;4.058;2022-09-14T00:37:15;100814.31;;;16.33;93.29
53874;BME280;62246;50.938;4.058;2022-09-14T00:39:41;100819.41;;;16.44;93.55
53874;BME280;62246;50.938;4.058;2022-09-14T00:42:06;100811.38;;;16.44;93.56
53874;BME280;62246;50.938;4.058;2022-09-14T00:46:59;100804.75;;;16.48;92.98
53874;BME280;62246;50.938;4.058;2022-09-14T00:49:32;100811.94;;;16.48;91.96
53874;BME280;62246;50.938;4.058;2022-09-14T00:52:08;100805.44;;;16.51;91.53
53874;BME280;62246;50.938;4.058;2022-09-14T00:55:05;100802.59;;;16.52;92.54
53874;BME280;62246;50.938;4.058;2022-09-14T00:57:39;100796.16;;;16.37;91.59
53874;BME280;62246;50.938;4.058;2022-09-14T01:00:07;100802.81;;;16.32;90.78
53874;BME280;62246;50.938;4.058;2022-09-14T01:02:34;100812.56;;;16.42;92.11
53874;BME280;62246;50.938;4.058;2022-09-14T01:05:00;100801.56;;;16.45;91.33
53874;BME280;62246;50.938;4.058;2022-09-14T01:07:38;100800.84;;;16.43;91.21
53874;BME280;62246;50.938;4.058;2022-09-14T01:10:17;100799.50;;;16.39;90.59
53874;BME280;62246;50.938;4.058;2022-09-14T01:18:03;100785.97;;;16.40;89.73
53874;BME280;62246;50.938;4.058;2022-09-14T01:20:40;100775.84;;;16.26;89.87
53874;BME280;62246;50.938;4.058;2022-09-14T01:23:16;100773.41;;;16.14;90.74
53874;BME280;62246;50.938;4.058;2022-09-14T01:28:34;100783.03;;;16.25;90.08
53874;BME280;62246;50.938;4.058;2022-09-14T01:31:03;100782.34;;;16.23;89.98
53874;BME280;62246;50.938;4.058;2022-09-14T01:33:36;100787.00;;;16.21;89.91
53874;BME280;62246;50.938;4.058;2022-09-14T01:36:06;100785.03;;;16.23;89.95
53874;BME280;62246;50.938;4.058;2022-09-14T01:38:41;100791.03;;;16.25;89.49
53874;BME280;62246;50.938;4.058;2022-09-14T01:41:12;100789.13;;;16.36;89.33
53874;BME280;62246;50.938;4.058;2022-09-14T01:44:07;100788.44;;;16.33;89.06
53874;BME280;62246;50.938;4.058;2022-09-14T01:46:41;100788.22;;;16.27;90.15
53874;BME280;62246;50.938;4.058;2022-09-14T01:49:19;100779.44;;;16.35;89.03
53874;BME280;62246;50.938;4.058;2022-09-14T01:51:49;100778.88;;;16.31;88.81
53874;BME280;62246;50.938;4.058;2022-09-14T01:54:45;100785.59;;;16.35;88.04
53874;BME280;62246;50.938;4.058;2022-09-14T01:57:17;100777.75;;;16.33;88.60
53874;BME280;62246;50.938;4.058;2022-09-14T01:59:45;100782.03;;;16.26;89.04
53874;BME280;62246;50.938;4.058;2022-09-14T02:02:26;100783.03;;;16.25;90.22
53874;BME280;62246;50.938;4.058;2022-09-14T02:05:00;100780.19;;;16.27;89.54
53874;BME280;62246;50.938;4.058;2022-09-14T02:07:28;100783.72;;;16.27;90.88
53874;BME280;62246;50.938;4.058;2022-09-14T02:09:54;100783.03;;;16.25;90.60
53874;BME280;62246;50.938;4.058;2022-09-14T02:12:20;100779.97;;;16.20;91.28
53874;BME280;62246;50.938;4.058;2022-09-14T02:14:47;100779.31;;;16.18;91.66
53874;BME280;62246;50.938;4.058;2022-09-14T02:17:14;100776.16;;;16.23;92.15
53874;BME280;62246;50.938;4.058;2022-09-14T02:19:45;100779.97;;;16.20;92.05
53874;BME280;62246;50.938;4.058;2022-09-14T02:22:13;100779.69;;;16.23;91.03
53874;BME280;62246;50.938;4.058;2022-09-14T02:24:39;100775.00;;;16.25;91.42
53874;BME280;62246;50.938;4.058;2022-09-14T02:27:06;100774.78;;;16.19;91.61
53874;BME280;62246;50.938;4.058;2022-09-14T02:29:32;100769.81;;;16.06;92.38
53874;BME280;62246;50.938;4.058;2022-09-14T02:37:58;100766.88;;;16.09;92.55
53874;BME280;62246;50.938;4.058;2022-09-14T02:53:45;100750.31;;;16.05;95.85
53874;BME280;62246;50.938;4.058;2022-09-14T02:56:12;100744.41;;;16.02;96.94
53874;BME280;62246;50.938;4.058;2022-09-14T02:58:42;100744.91;;;15.97;94.87
53874;BME280;62246;50.938;4.058;2022-09-14T03:01:10;100746.63;;;15.88;95.81
53874;BME280;62246;50.938;4.058;2022-09-14T03:03:36;100732.75;;;15.85;96.58
53874;BME280;62246;50.938;4.058;2022-09-14T03:06:02;100743.47;;;15.75;97.47
53874;BME280;62246;50.938;4.058;2022-09-14T03:08:29;100742.50;;;15.76;97.06
53874;BME280;62246;50.938;4.058;2022-09-14T03:10:54;100731.28;;;15.72;96.91
53874;BME280;62246;50.938;4.058;2022-09-14T03:13:20;100731.94;;;15.74;97.93
53874;BME280;62246;50.938;4.058;2022-09-14T03:15:46;100732.78;;;15.75;98.16
53874;BME280;62246;50.938;4.058;2022-09-14T03:18:11;100732.31;;;15.79;97.55
53874;BME280;62246;50.938;4.058;2022-09-14T03:20:37;100731.59;;;15.87;97.96
53874;BME280;62246;50.938;4.058;2022-09-14T03:23:03;100729.09;;;15.86;97.22
53874;BME280;62246;50.938;4.058;2022-09-14T03:25:30;100731.91;;;15.84;97.79
53874;BME280;62246;50.938;4.058;2022-09-14T03:28:00;100735.47;;;15.75;98.77
53874;BME280;62246;50.938;4.058;2022-09-14T03:30:26;100732.47;;;15.78;98.61
53874;BME280;62246;50.938;4.058;2022-09-14T03:32:52;100722.94;;;15.75;98.48
53874;BME280;62246;50.938;4.058;2022-09-14T03:35:18;100731.59;;;15.69;98.95
53874;BME280;62246;50.938;4.058;2022-09-14T03:37:44;100739.09;;;15.56;98.74
53874;BME280;62246;50.938;4.058;2022-09-14T03:40:12;100731.88;;;15.66;98.99
53874;BME280;62246;50.938;4.058;2022-09-14T03:42:43;100730.88;;;15.67;99.83
53874;BME280;62246;50.938;4.058;2022-09-14T03:45:10;100728.06;;;15.69;100.00
53874;BME280;62246;50.938;4.058;2022-09-14T03:47:36;100719.59;;;15.73;100.00
53874;BME280;62246;50.938;4.058;2022-09-14T03:50:02;100722.72;;;15.69;100.00
53874;BME280;62246;50.938;4.058;2022-09-14T03:52:27;100710.00;;;15.62;100.00
53874;BME280;62246;50.938;4.058;2022-09-14T03:54:52;100710.13;;;15.61;100.00
53874;BME280;62246;50.938;4.058;2022-09-14T03:57:18;100715.38;;;15.53;100.00
53874;BME280;62246;50.938;4.058;2022-09-14T03:59:43;100711.28;;;15.58;100.00
53874;BME280;62246;50.938;4.058;2022-09-14T04:02:09;100718.00;;;15.62;100.00
53874;BME280;62246;50.938;4.058;2022-09-14T04:04:34;100723.53;;;15.51;100.00
53874;BME280;62246;50.938;4.058;2022-09-14T04:07:00;100715.84;;;15.48;100.00
53874;BME280;62246;50.938;4.058;2022-09-14T04:09:25;100713.63;;;15.43;100.00
53874;BME280;62246;50.938;4.058;2022-09-14T04:11:51;100722.38;;;15.36;100.00
53874;BME280;62246;50.938;4.058;2022-09-14T04:14:16;100719.25;;;15.40;100.00
53874;BME280;62246;50.938;4.058;2022-09-14T04:16:42;100715.16;;;15.46;100.00
53874;BME280;62246;50.938;4.058;2022-09-14T04:19:10;100710.88;;;15.35;100.00
53874;BME280;62246;50.938;4.058;2022-09-14T04:21:35;100711.41;;;15.39;100.00
53874;BME280;62246;50.938;4.058;2022-09-14T04:24:01;100709.53;;;15.21;100.00
53874;BME280;62246;50.938;4.058;2022-09-14T04:26:29;100712.19;;;15.21;100.00
53874;BME280;62246;50.938;4.058;2022-09-14T04:28:55;100696.75;;;15.25;100.00
53874;BME280;62246;50.938;4.058;2022-09-14T04:31:21;100695.22;;;15.22;100.00
53874;BME280;62246;50.938;4.058;2022-09-14T04:33:47;100699.91;;;15.10;100.00
53874;BME280;62246;50.938;4.058;2022-09-14T04:36:18;100700.06;;;15.09;100.00
53874;BME280;62246;50.938;4.058;2022-09-14T04:38:44;100705.94;;;15.12;100.00
53874;BME280;62246;50.938;4.058;2022-09-14T04:41:15;100684.53;;;15.22;100.00
53874;BME280;62246;50.938;4.058;2022-09-14T04:43:42;100680.81;;;15.15;100.00
53874;BME280;62246;50.938;4.058;2022-09-14T04:46:14;100678.16;;;15.15;100.00
53874;BME280;62246;50.938;4.058;2022-09-14T04:48:40;100679.44;;;15.11;100.00
53874;BME280;62246;50.938;4.058;2022-09-14T04:51:09;100676.78;;;15.11;100.00
53874;BME280;62246;50.938;4.058;2022-09-14T04:53:37;100660.50;;;15.04;100.00
53874;BME280;62246;50.938;4.058;2022-09-14T04:56:05;100649.91;;;14.94;100.00
53874;BME280;62246;50.938;4.058;2022-09-14T04:58:31;100661.53;;;14.93;100.00
53874;BME280;62246;50.938;4.058;2022-09-14T05:01:04;100647.47;;;15.01;100.00
53874;BME280;62246;50.938;4.058;2022-09-14T05:03:31;100639.31;;;15.03;100.00
53874;BME280;62246;50.938;4.058;2022-09-14T05:06:03;100634.00;;;15.03;100.00
53874;BME280;62246;50.938;4.058;2022-09-14T05:08:29;100640.22;;;14.93;100.00
53874;BME280;62246;50.938;4.058;2022-09-14T05:10:56;100635.91;;;14.92;100.00
53874;BME280;62246;50.938;4.058;2022-09-14T05:13:22;100638.34;;;15.04;100.00
53874;BME280;62246;50.938;4.058;2022-09-14T05:15:48;100635.53;;;15.05;100.00
53874;BME280;62246;50.938;4.058;2022-09-14T05:18:14;100635.59;;;14.95;100.00
53874;BME280;62246;50.938;4.058;2022-09-14T05:20:39;100634.88;;;14.93;100.00
53874;BME280;62246;50.938;4.058;2022-09-14T05:23:05;100632.53;;;14.90;100.00
53874;BME280;62246;50.938;4.058;2022-09-14T05:25:30;100634.06;;;14.93;100.00
53874;BME280;62246;50.938;4.058;2022-09-14T05:27:56;100636.91;;;14.81;100.00
53874;BME280;62246;50.938;4.058;2022-09-14T05:30:21;100634.38;;;14.90;100.00
53874;BME280;62246;50.938;4.058;2022-09-14T05:32:47;100636.88;;;14.91;100.00
53874;BME280;62246;50.938;4.058;2022-09-14T05:35:12;100633.81;;;14.86;100.00
53874;BME280;62246;50.938;4.058;2022-09-14T05:37:38;100632.53;;;14.90;100.00
53874;BME280;62246;50.938;4.058;2022-09-14T05:40:03;100635.63;;;14.86;100.00
53874;BME280;62246;50.938;4.058;2022-09-14T05:42:30;100651.19;;;14.90;100.00
53874;BME280;62246;50.938;4.058;2022-09-14T05:44:55;100640.22;;;14.93;100.00
53874;BME280;62246;50.938;4.058;2022-09-14T05:47:21;100650.06;;;14.93;100.00
53874;BME280;62246;50.938;4.058;2022-09-14T05:49:46;100655.78;;;14.98;100.00
53874;BME280;62246;50.938;4.058;2022-09-14T05:52:11;100646.56;;;14.92;100.00
53874;BME280;62246;50.938;4.058;2022-09-14T05:54:37;100644.56;;;14.94;100.00
53874;BME280;62246;50.938;4.058;2022-09-14T05:57:03;100641.31;;;15.01;100.00
53874;BME280;62246;50.938;4.058;2022-09-14T05:59:28;100635.00;;;15.02;100.00
53874;BME280;62246;50.938;4.058;2022-09-14T06:01:56;100638.59;;;15.10;100.00
53874;BME280;62246;50.938;4.058;2022-09-14T06:04:22;100627.75;;;15.12;100.00
53874;BME280;62246;50.938;4.058;2022-09-14T06:06:48;100616.13;;;15.13;100.00
53874;BME280;62246;50.938;4.058;2022-09-14T06:09:13;100614.75;;;15.09;100.00
53874;BME280;62246;50.938;4.058;2022-09-14T06:11:40;100616.47;;;15.00;100.00
53874;BME280;62246;50.938;4.058;2022-09-14T06:14:06;100620.38;;;15.06;100.00
53874;BME280;62246;50.938;4.058;2022-09-14T06:16:32;100629.53;;;15.03;100.00
53874;BME280;62246;50.938;4.058;2022-09-14T06:18:58;100634.31;;;14.99;100.00
53874;BME280;62246;50.938;4.058;2022-09-14T06:21:28;100640.13;;;15.13;100.00
53874;BME280;62246;50.938;4.058;2022-09-14T06:23:54;100637.84;;;15.18;100.00
53874;BME280;62246;50.938;4.058;2022-09-14T06:26:20;100644.47;;;15.14;100.00
53874;BME280;62246;50.938;4.058;2022-09-14T06:28:45;100644.91;;;15.09;100.00
53874;BME280;62246;50.938;4.058;2022-09-14T06:31:12;100647.47;;;15.01;100.00
53874;BME280;62246;50.938;4.058;2022-09-14T06:33:42;100643.84;;;15.02;100.00
53874;BME280;62246;50.938;4.058;2022-09-14T06:36:11;100643.69;;;15.04;100.00
53874;BME280;62246;50.938;4.058;2022-09-14T06:38:38;100631.41;;;14.93;100.00
53874;BME280;62246;50.938;4.058;2022-09-14T06:41:05;100632.84;;;14.87;100.00
53874;BME280;62246;50.938;4.058;2022-09-14T06:43:36;100625.16;;;15.02;100.00
53874;BME280;62246;50.938;4.058;2022-09-14T06:48:40;100627.44;;;14.97;100.00
53874;BME280;62246;50.938;4.058;2022-09-14T06:51:13;100639.63;;;14.99;100.00
53874;BME280;62246;50.938;4.058;2022-09-14T06:53:39;100635.69;;;15.04;100.00
53874;BME280;62246;50.938;4.058;2022-09-14T06:56:04;100642.00;;;15.03;100.00
53874;BME280;62246;50.938;4.058;2022-09-14T06:58:32;100637.84;;;15.18;100.00
53874;BME280;62246;50.938;4.058;2022-09-14T07:01:02;100632.97;;;15.13;100.00
53874;BME280;62246;50.938;4.058;2022-09-14T07:03:28;100640.81;;;15.15;100.00
53874;BME280;62246;50.938;4.058;2022-09-14T07:06:07;100641.66;;;15.15;100.00
53874;BME280;62246;50.938;4.058;2022-09-14T07:08:34;100650.22;;;15.09;100.00
53874;BME280;62246;50.938;4.058;2022-09-14T07:11:00;100649.50;;;15.17;100.00
53874;BME280;62246;50.938;4.058;2022-09-14T07:13:27;100639.91;;;15.24;100.00
53874;BME280;62246;50.938;4.058;2022-09-14T07:15:53;100632.75;;;15.25;100.00
53874;BME280;62246;50.938;4.058;2022-09-14T07:18:19;100635.47;;;15.15;100.00
53874;BME280;62246;50.938;4.058;2022-09-14T07:20:47;100648.91;;;15.23;100.00
53874;BME280;62246;50.938;4.058;2022-09-14T07:23:12;100642.84;;;15.21;100.00
53874;BME280;62246;50.938;4.058;2022-09-14T07:25:38;100643.81;;;15.30;100.00
53874;BME280;62246;50.938;4.058;2022-09-14T07:28:03;100647.75;;;15.26;100.00
53874;BME280;62246;50.938;4.058;2022-09-14T07:30:29;100641.72;;;15.24;100.00
53874;BME280;62246;50.938;4.058;2022-09-14T07:32:54;100643.66;;;15.31;100.00
53874;BME280;62246;50.938;4.058;2022-09-14T07:35:19;100638.78;;;15.27;100.00
53874;BME280;62246;50.938;4.058;2022-09-14T07:37:45;100642.28;;;15.27;100.00
53874;BME280;62246;50.938;4.058;2022-09-14T07:40:10;100639.84;;;15.34;100.00
53874;BME280;62246;50.938;4.058;2022-09-14T07:42:36;100640.22;;;15.39;100.00
53874;BME280;62246;50.938;4.058;2022-09-14T07:45:04;100644.94;;;15.27;100.00
53874;BME280;62246;50.938;4.058;2022-09-14T07:47:30;100641.28;;;15.28;100.00
53874;BME280;62246;50.938;4.058;2022-09-14T07:49:55;100630.16;;;15.33;100.00
53874;BME280;62246;50.938;4.058;2022-09-14T07:52:21;100633.22;;;15.38;100.00
53874;BME280;62246;50.938;4.058;2022-09-14T07:54:46;100622.16;;;15.33;100.00
53874;BME280;62246;50.938;4.058;2022-09-14T07:57:11;100614.25;;;15.41;100.00
53874;BME280;62246;50.938;4.058;2022-09-14T07:59:37;100607.06;;;15.42;100.00
53874;BME280;62246;50.938;4.058;2022-09-14T08:02:07;100601.22;;;15.56;100.00
53874;BME280;62246;50.938;4.058;2022-09-14T08:04:36;100594.56;;;15.60;100.00
53874;BME280;62246;50.938;4.058;2022-09-14T08:07:03;100592.72;;;15.79;100.00
53874;BME280;62246;50.938;4.058;2022-09-14T08:09:29;100595.38;;;15.79;100.00
53874;BME280;62246;50.938;4.058;2022-09-14T08:11:54;100594.31;;;15.90;100.00
53874;BME280;62246;50.938;4.058;2022-09-14T08:14:21;100602.50;;;15.88;100.00
53874;BME280;62246;50.938;4.058;2022-09-14T08:16:46;100605.06;;;15.80;100.00
53874;BME280;62246;50.938;4.058;2022-09-14T08:19:16;100599.00;;;15.88;100.00
53874;BME280;62246;50.938;4.058;2022-09-14T08:21:46;100591.44;;;15.83;100.00
53874;BME280;62246;50.938;4.058;2022-09-14T08:24:13;100587.53;;;15.59;100.00
53874;BME280;62246;50.938;4.058;2022-09-14T08:26:39;100595.56;;;15.59;100.00
53874;BME280;62246;50.938;4.058;2022-09-14T08:29:05;100601.28;;;15.64;100.00
53874;BME280;62246;50.938;4.058;2022-09-14T08:31:35;100605.84;;;15.54;100.00
53874;BME280;62246;50.938;4.058;2022-09-14T08:34:02;100609.88;;;15.58;100.00
53874;BME280;62246;50.938;4.058;2022-09-14T08:36:30;100609.97;;;15.66;100.00
53874;BME280;62246;50.938;4.058;2022-09-14T08:38:56;100615.16;;;15.68;100.00
53874;BME280;62246;50.938;4.058;2022-09-14T08:41:27;100616.97;;;15.68;100.00
53874;BME280;62246;50.938;4.058;2022-09-14T08:43:53;100619.13;;;15.64;100.00
53874;BME280;62246;50.938;4.058;2022-09-14T08:48:54;100628.97;;;15.45;100.00
53874;BME280;62246;50.938;4.058;2022-09-14T08:51:20;100627.81;;;15.48;100.00
53874;BME280;62246;50.938;4.058;2022-09-14T08:53:46;100630.88;;;15.53;100.00
53874;BME280;62246;50.938;4.058;2022-09-14T08:56:32;100640.84;;;15.51;100.00
53874;BME280;62246;50.938;4.058;2022-09-14T09:04:41;100656.03;;;15.51;100.00
53874;BME280;62246;50.938;4.058;2022-09-14T09:09:46;100663.09;;;15.42;100.00
53874;BME280;62246;50.938;4.058;2022-09-14T09:12:28;100656.97;;;15.31;100.00
53874;BME280;62246;50.938;4.058;2022-09-14T09:14:59;100661.75;;;15.28;100.00
53874;BME280;62246;50.938;4.058;2022-09-14T09:17:38;100661.25;;;15.24;100.00
53874;BME280;62246;50.938;4.058;2022-09-14T09:20:14;100660.94;;;15.27;100.00
53874;BME280;62246;50.938;4.058;2022-09-14T09:28:16;100670.00;;;15.35;100.00
53874;BME280;62246;50.938;4.058;2022-09-14T09:30:42;100659.88;;;15.38;100.00
53874;BME280;62246;50.938;4.058;2022-09-14T09:33:24;100659.72;;;15.40;100.00
53874;BME280;62246;50.938;4.058;2022-09-14T09:35:52;100667.34;;;15.35;100.00
53874;BME280;62246;50.938;4.058;2022-09-14T09:38:20;100669.25;;;15.42;100.00
53874;BME280;62246;50.938;4.058;2022-09-14T09:40:59;100672.66;;;15.35;100.00
53874;BME280;62246;50.938;4.058;2022-09-14T09:43:26;100673.75;;;15.42;100.00
53874;BME280;62246;50.938;4.058;2022-09-14T09:45:58;100674.16;;;15.47;100.00
53874;BME280;62246;50.938;4.058;2022-09-14T09:48:27;100670.13;;;15.43;100.00
53874;BME280;62246;50.938;4.058;2022-09-14T09:51:01;100666.19;;;15.37;100.00
53874;BME280;62246;50.938;4.058;2022-09-14T09:53:27;100669.66;;;15.29;100.00
53874;BME280;62246;50.938;4.058;2022-09-14T09:55:53;100664.31;;;15.29;100.00
53874;BME280;62246;50.938;4.058;2022-09-14T09:58:32;100678.47;;;15.30;100.00
53874;BME280;62246;50.938;4.058;2022-09-14T10:01:06;100671.25;;;15.40;100.00
53874;BME280;62246;50.938;4.058;2022-09-14T10:03:37;100672.03;;;15.51;100.00
53874;BME280;62246;50.938;4.058;2022-09-14T10:06:07;100666.19;;;15.37;99.95
53874;BME280;62246;50.938;4.058;2022-09-14T10:08:43;100661.09;;;15.44;100.00
53874;BME280;62246;50.938;4.058;2022-09-14T10:11:30;100642.22;;;15.55;100.00
53874;BME280;62246;50.938;4.058;2022-09-14T10:13:57;100641.06;;;15.76;100.00
53874;BME280;62246;50.938;4.058;2022-09-14T10:16:24;100651.44;;;15.79;99.69
53874;BME280;62246;50.938;4.058;2022-09-14T10:18:51;100655.56;;;15.73;99.31
53874;BME280;62246;50.938;4.058;2022-09-14T10:21:19;100650.91;;;15.57;98.53
53874;BME280;62246;50.938;4.058;2022-09-14T10:23:45;100654.19;;;15.51;99.43
53874;BME280;62246;50.938;4.058;2022-09-14T10:28:37;100631.75;;;15.62;99.25
53874;BME280;62246;50.938;4.058;2022-09-14T10:33:48;100630.19;;;15.69;98.23
53874;BME280;62246;50.938;4.058;2022-09-14T10:39:19;100622.63;;;15.64;98.59
53874;BME280;62246;50.938;4.058;2022-09-14T10:49:49;100625.19;;;15.92;98.82
53874;BME280;62246;50.938;4.058;2022-09-14T11:09:22;100608.50;;;16.43;95.78
53874;BME280;62246;50.938;4.058;2022-09-14T11:14:42;100612.13;;;16.07;95.55
53874;BME280;62246;50.938;4.058;2022-09-14T11:17:35;100616.69;;;16.15;95.77
53874;BME280;62246;50.938;4.058;2022-09-14T11:25:16;100628.97;;;15.81;97.04
53874;BME280;62246;50.938;4.058;2022-09-14T11:27:49;100637.72;;;15.92;96.58
53874;BME280;62246;50.938;4.058;2022-09-14T11:30:36;100628.97;;;15.81;96.70
53874;BME280;62246;50.938;4.058;2022-09-14T11:33:12;100638.09;;;15.97;96.76
53874;BME280;62246;50.938;4.058;2022-09-14T11:35:44;100635.56;;;15.95;96.73
53874;BME280;62246;50.938;4.058;2022-09-14T11:38:19;100634.00;;;16.11;96.35
53874;BME280;62246;50.938;4.058;2022-09-14T11:40:46;100628.06;;;16.17;96.31
53874;BME280;62246;50.938;4.058;2022-09-14T11:43:19;100632.88;;;16.13;95.26
53874;BME280;62246;50.938;4.058;2022-09-14T11:45:49;100639.16;;;16.04;96.53
53874;BME280;62246;50.938;4.058;2022-09-14T11:50:48;100637.09;;;15.98;96.45
53874;BME280;62246;50.938;4.058;2022-09-14T11:53:17;100639.88;;;16.14;95.98
53874;BME280;62246;50.938;4.058;2022-09-14T11:55:46;100635.75;;;16.20;96.44
53874;BME280;62246;50.938;4.058;2022-09-14T11:58:21;100643.09;;;16.18;96.19
53874;BME280;62246;50.938;4.058;2022-09-14T12:03:18;100650.41;;;16.16;95.13
53874;BME280;62246;50.938;4.058;2022-09-14T12:05:45;100656.91;;;16.13;96.02
53874;BME280;62246;50.938;4.058;2022-09-14T12:11:30;100647.53;;;16.09;96.33
53874;BME280;62246;50.938;4.058;2022-09-14T12:19:30;100641.03;;;16.12;96.56
53874;BME280;62246;50.938;4.058;2022-09-14T12:22:06;100627.38;;;16.15;98.05
53874;BME280;62246;50.938;4.058;2022-09-14T12:24:42;100628.06;;;16.17;97.53
53874;BME280;62246;50.938;4.058;2022-09-14T12:27:37;100631.31;;;16.29;98.52
53874;BME280;62246;50.938;4.058;2022-09-14T12:31:05;100632.91;;;16.48;96.50
53874;BME280;62246;50.938;4.058;2022-09-14T12:40:58;100627.72;;;16.46;95.49
53874;BME280;62246;50.938;4.058;2022-09-14T13:02:09;100609.91;;;16.55;94.00
53874;BME280;62246;50.938;4.058;2022-09-14T13:04:39;100604.94;;;16.69;93.62
53874;BME280;62246;50.938;4.058;2022-09-14T13:07:18;100603.31;;;16.84;91.62
53874;BME280;62246;50.938;4.058;2022-09-14T13:09:49;100607.19;;;16.81;93.07
53874;BME280;62246;50.938;4.058;2022-09-14T13:12:24;100602.63;;;16.74;93.53
53874;BME280;62246;50.938;4.058;2022-09-14T13:14:54;100594.38;;;16.59;92.18
53874;BME280;62246;50.938;4.058;2022-09-14T13:17:21;100597.97;;;16.41;94.00
53874;BME280;62246;50.938;4.058;2022-09-14T13:19:55;100596.94;;;16.34;93.48
53874;BME280;62246;50.938;4.058;2022-09-14T13:22:23;100603.13;;;16.35;93.78
53874;BME280;62246;50.938;4.058;2022-09-14T13:24:49;100604.03;;;16.17;93.29
53874;BME280;62246;50.938;4.058;2022-09-14T13:27:25;100602.53;;;16.23;94.35
53874;BME280;62246;50.938;4.058;2022-09-14T13:32:54;100602.28;;;16.34;94.62
53874;BME280;62246;50.938;4.058;2022-09-14T13:35:49;100599.44;;;16.36;95.00
53874;BME280;62246;50.938;4.058;2022-09-14T13:38:19;100588.59;;;16.37;94.74
53874;BME280;62246;50.938;4.058;2022-09-14T13:40:47;100582.81;;;16.42;94.80
53874;BME280;62246;50.938;4.058;2022-09-14T13:43:18;100583.13;;;16.47;94.80
53874;BME280;62246;50.938;4.058;2022-09-14T13:45:45;100581.31;;;16.47;95.32
53874;BME280;62246;50.938;4.058;2022-09-14T13:48:13;100575.94;;;16.39;94.04
53874;BME280;62246;50.938;4.058;2022-09-14T13:50:41;100567.25;;;16.11;94.33
53874;BME280;62246;50.938;4.058;2022-09-14T13:56:34;100570.13;;;16.18;92.04
53874;BME280;62246;50.938;4.058;2022-09-14T14:01:35;100559.97;;;16.21;93.23
53874;BME280;62246;50.938;4.058;2022-09-14T14:04:02;100563.34;;;16.23;93.74
53874;BME280;62246;50.938;4.058;2022-09-14T14:06:30;100558.28;;;16.20;93.22
53874;BME280;62246;50.938;4.058;2022-09-14T14:11:28;100552.13;;;16.20;93.49
53874;BME280;62246;50.938;4.058;2022-09-14T14:13:54;100550.97;;;16.22;93.38
53874;BME280;62246;50.938;4.058;2022-09-14T14:16:22;100545.63;;;16.22;93.66
53874;BME280;62246;50.938;4.058;2022-09-14T14:18:56;100548.88;;;16.34;93.59
53874;BME280;62246;50.938;4.058;2022-09-14T14:26:37;100557.56;;;16.44;92.85
53874;BME280;62246;50.938;4.058;2022-09-14T14:29:09;100559.84;;;16.31;92.58
53874;BME280;62246;50.938;4.058;2022-09-14T14:31:35;100562.69;;;16.29;93.20
53874;BME280;62246;50.938;4.058;2022-09-14T14:34:09;100566.34;;;16.28;91.97
53874;BME280;62246;50.938;4.058;2022-09-14T14:36:34;100557.63;;;16.18;91.81
53874;BME280;62246;50.938;4.058;2022-09-14T14:39:00;100558.28;;;16.20;92.74
53874;BME280;62246;50.938;4.058;2022-09-14T14:41:25;100561.91;;;16.11;92.56
53874;BME280;62246;50.938;4.058;2022-09-14T14:43:51;100548.53;;;16.03;92.45
53874;BME280;62246;50.938;4.058;2022-09-14T14:46:16;100554.97;;;16.18;93.57
53874;BME280;62246;50.938;4.058;2022-09-14T14:48:42;100555.91;;;16.09;92.37
53874;BME280;62246;50.938;4.058;2022-09-14T14:51:12;100551.28;;;16.19;93.69
53874;BME280;62246;50.938;4.058;2022-09-14T14:53:41;100545.56;;;16.14;93.79
53874;BME280;62246;50.938;4.058;2022-09-14T14:56:09;100552.22;;;16.10;92.68
53874;BME280;62246;50.938;4.058;2022-09-14T14:58:41;100553.69;;;16.04;93.42
53874;BME280;62246;50.938;4.058;2022-09-14T15:01:08;100553.16;;;16.01;93.06
53874;BME280;62246;50.938;4.058;2022-09-14T15:03:33;100558.06;;;16.05;93.59
53874;BME280;62246;50.938;4.058;2022-09-14T15:05:59;100557.44;;;15.85;93.64
53874;BME280;62246;50.938;4.058;2022-09-14T15:08:25;100557.09;;;15.88;93.62
53874;BME280;62246;50.938;4.058;2022-09-14T15:10:55;100569.47;;;15.71;94.05
53874;BME280;62246;50.938;4.058;2022-09-14T15:13:20;100574.81;;;15.71;94.38
53874;BME280;62246;50.938;4.058;2022-09-14T15:15:46;100573.97;;;15.71;94.67
53874;BME280;62246;50.938;4.058;2022-09-14T15:18:11;100575.41;;;15.65;94.09
53874;BME280;62246;50.938;4.058;2022-09-14T15:20:37;100586.41;;;15.62;95.27